logo
Search for airport 
image banner adimage banner adimage banner ad
image banner ad

EDOPI - Oppingen/Au

Located in , Germany

ICAO - ED0053, IATA -

Data provided by Airmate  

General information

Coordinates: N48°33'24" E9°49'19"
Elevation is 2200 feet MSL.
 
View others Airports in Baden-Württemberg

Operational data

Special qualification required
Current time UTC:
Current local time:
Weather at : ETHL - Laupheim ( 38 km )
METAR: ETHL 161920Z AUTO 26002KT 9999 // ////// 21/11 Q1018 ///
TAF: TAF ETHL 161317Z 1614/1623 24008KT 9999 NSW SCT045 SCT120
View NOTAMs / SUP AIP / TFR affecting this airport [VIEW]
Communications frequencies: [VIEW]

Runways:

RWY identifierQFULength (ft)Width (ft)SurfaceLDA (ft)
10100°2297131GRASS
28280°2297131GRASS

Airport contact information

Address: Germany

Satellite view of EDOPI